sensor_id;sensor_type;location;lat;lon;timestamp;P1;durP1;ratioP1;P2;durP2;ratioP2
11247;SDS011;5681;53.316;13.950;2023-03-23T00:00:51;7.97;;;3.28;;
11247;SDS011;5681;53.316;13.950;2023-03-23T00:03:19;8.18;;;3.72;;
11247;SDS011;5681;53.316;13.950;2023-03-23T00:05:46;6.60;;;3.30;;
11247;SDS011;5681;53.316;13.950;2023-03-23T00:08:15;8.20;;;3.63;;
11247;SDS011;5681;53.316;13.950;2023-03-23T00:10:42;5.80;;;3.45;;
11247;SDS011;5681;53.316;13.950;2023-03-23T00:13:08;7.25;;;3.13;;
11247;SDS011;5681;53.316;13.950;2023-03-23T00:15:36;4.35;;;3.28;;
11247;SDS011;5681;53.316;13.950;2023-03-23T00:18:07;6.10;;;3.42;;
11247;SDS011;5681;53.316;13.950;2023-03-23T00:20:34;5.65;;;3.00;;
11247;SDS011;5681;53.316;13.950;2023-03-23T00:23:05;7.28;;;3.30;;
11247;SDS011;5681;53.316;13.950;2023-03-23T00:25:32;5.10;;;3.00;;
11247;SDS011;5681;53.316;13.950;2023-03-23T00:27:58;5.38;;;2.80;;
11247;SDS011;5681;53.316;13.950;2023-03-23T00:30:25;6.28;;;3.22;;
11247;SDS011;5681;53.316;13.950;2023-03-23T00:32:51;6.30;;;3.25;;
11247;SDS011;5681;53.316;13.950;2023-03-23T00:35:19;4.90;;;3.00;;
11247;SDS011;5681;53.316;13.950;2023-03-23T00:37:45;6.93;;;3.28;;
11247;SDS011;5681;53.316;13.950;2023-03-23T00:40:12;4.53;;;3.05;;
11247;SDS011;5681;53.316;13.950;2023-03-23T00:42:38;6.07;;;3.20;;
11247;SDS011;5681;53.316;13.950;2023-03-23T00:45:05;4.85;;;3.03;;
11247;SDS011;5681;53.316;13.950;2023-03-23T00:47:35;5.55;;;2.97;;
11247;SDS011;5681;53.316;13.950;2023-03-23T00:50:02;6.80;;;3.38;;
11247;SDS011;5681;53.316;13.950;2023-03-23T00:52:31;9.00;;;3.42;;
11247;SDS011;5681;53.316;13.950;2023-03-23T00:54:57;5.78;;;2.92;;
11247;SDS011;5681;53.316;13.950;2023-03-23T00:57:24;4.63;;;3.17;;
11247;SDS011;5681;53.316;13.950;2023-03-23T00:59:50;5.60;;;2.97;;
11247;SDS011;5681;53.316;13.950;2023-03-23T01:02:16;6.38;;;3.00;;
11247;SDS011;5681;53.316;13.950;2023-03-23T01:04:44;4.60;;;3.20;;
11247;SDS011;5681;53.316;13.950;2023-03-23T01:07:11;5.45;;;3.25;;
11247;SDS011;5681;53.316;13.950;2023-03-23T01:09:39;5.88;;;2.95;;
11247;SDS011;5681;53.316;13.950;2023-03-23T01:12:09;6.28;;;3.10;;
11247;SDS011;5681;53.316;13.950;2023-03-23T01:14:36;6.38;;;3.25;;
11247;SDS011;5681;53.316;13.950;2023-03-23T01:17:03;5.82;;;2.95;;
11247;SDS011;5681;53.316;13.950;2023-03-23T01:19:29;6.28;;;3.08;;
11247;SDS011;5681;53.316;13.950;2023-03-23T01:21:56;5.82;;;3.13;;
11247;SDS011;5681;53.316;13.950;2023-03-23T01:24:22;5.57;;;2.88;;
11247;SDS011;5681;53.316;13.950;2023-03-23T01:26:50;5.10;;;3.22;;
11247;SDS011;5681;53.316;13.950;2023-03-23T01:29:16;4.97;;;3.10;;
11247;SDS011;5681;53.316;13.950;2023-03-23T01:31:42;7.53;;;2.95;;
11247;SDS011;5681;53.316;13.950;2023-03-23T01:34:09;4.45;;;3.15;;
11247;SDS011;5681;53.316;13.950;2023-03-23T01:36:36;4.13;;;3.17;;
11247;SDS011;5681;53.316;13.950;2023-03-23T01:39:03;4.93;;;2.97;;
11247;SDS011;5681;53.316;13.950;2023-03-23T01:41:30;3.85;;;2.70;;
11247;SDS011;5681;53.316;13.950;2023-03-23T01:43:59;5.28;;;3.25;;
11247;SDS011;5681;53.316;13.950;2023-03-23T01:46:27;3.72;;;2.67;;
11247;SDS011;5681;53.316;13.950;2023-03-23T01:48:55;5.40;;;3.15;;
11247;SDS011;5681;53.316;13.950;2023-03-23T01:51:23;6.40;;;3.20;;
11247;SDS011;5681;53.316;13.950;2023-03-23T01:53:51;5.93;;;3.10;;
11247;SDS011;5681;53.316;13.950;2023-03-23T01:56:21;4.40;;;2.80;;
11247;SDS011;5681;53.316;13.950;2023-03-23T01:58:50;5.30;;;3.15;;
11247;SDS011;5681;53.316;13.950;2023-03-23T02:01:19;6.22;;;3.35;;
11247;SDS011;5681;53.316;13.950;2023-03-23T02:03:49;7.28;;;2.90;;
11247;SDS011;5681;53.316;13.950;2023-03-23T02:06:16;4.65;;;2.97;;
11247;SDS011;5681;53.316;13.950;2023-03-23T02:08:42;4.95;;;2.90;;
11247;SDS011;5681;53.316;13.950;2023-03-23T02:11:13;4.95;;;2.97;;
11247;SDS011;5681;53.316;13.950;2023-03-23T02:13:40;3.65;;;3.00;;
11247;SDS011;5681;53.316;13.950;2023-03-23T02:16:08;6.30;;;3.40;;
11247;SDS011;5681;53.316;13.950;2023-03-23T02:18:45;4.45;;;2.67;;
11247;SDS011;5681;53.316;13.950;2023-03-23T02:21:23;5.50;;;3.20;;
11247;SDS011;5681;53.316;13.950;2023-03-23T02:24:03;6.70;;;2.80;;
11247;SDS011;5681;53.316;13.950;2023-03-23T02:26:47;6.43;;;2.60;;
11247;SDS011;5681;53.316;13.950;2023-03-23T02:29:22;3.95;;;2.90;;
11247;SDS011;5681;53.316;13.950;2023-03-23T02:32:02;4.38;;;2.67;;
11247;SDS011;5681;53.316;13.950;2023-03-23T02:34:35;4.90;;;2.70;;
11247;SDS011;5681;53.316;13.950;2023-03-23T02:37:06;3.72;;;2.47;;
11247;SDS011;5681;53.316;13.950;2023-03-23T02:39:36;6.47;;;2.67;;
11247;SDS011;5681;53.316;13.950;2023-03-23T02:42:05;3.88;;;2.50;;
11247;SDS011;5681;53.316;13.950;2023-03-23T02:44:32;4.85;;;2.67;;
11247;SDS011;5681;53.316;13.950;2023-03-23T02:47:00;6.30;;;2.78;;
11247;SDS011;5681;53.316;13.950;2023-03-23T02:49:29;5.07;;;2.40;;
11247;SDS011;5681;53.316;13.950;2023-03-23T02:51:59;4.43;;;2.50;;
11247;SDS011;5681;53.316;13.950;2023-03-23T02:54:28;3.78;;;2.58;;
11247;SDS011;5681;53.316;13.950;2023-03-23T02:56:55;3.22;;;2.50;;
11247;SDS011;5681;53.316;13.950;2023-03-23T02:59:22;4.80;;;2.45;;
11247;SDS011;5681;53.316;13.950;2023-03-23T03:01:50;3.65;;;2.88;;
11247;SDS011;5681;53.316;13.950;2023-03-23T03:04:20;3.42;;;2.55;;
11247;SDS011;5681;53.316;13.950;2023-03-23T03:06:51;4.80;;;2.85;;
11247;SDS011;5681;53.316;13.950;2023-03-23T03:09:29;3.10;;;2.53;;
11247;SDS011;5681;53.316;13.950;2023-03-23T03:12:01;5.38;;;2.90;;
11247;SDS011;5681;53.316;13.950;2023-03-23T03:14:33;3.47;;;2.60;;
11247;SDS011;5681;53.316;13.950;2023-03-23T03:17:03;4.18;;;2.72;;
11247;SDS011;5681;53.316;13.950;2023-03-23T03:19:33;7.63;;;2.80;;
11247;SDS011;5681;53.316;13.950;2023-03-23T03:22:02;3.83;;;2.70;;
11247;SDS011;5681;53.316;13.950;2023-03-23T03:24:31;3.38;;;2.63;;
11247;SDS011;5681;53.316;13.950;2023-03-23T03:26:59;5.63;;;2.90;;
11247;SDS011;5681;53.316;13.950;2023-03-23T03:29:27;4.60;;;2.80;;
11247;SDS011;5681;53.316;13.950;2023-03-23T03:31:56;8.05;;;3.47;;
11247;SDS011;5681;53.316;13.950;2023-03-23T03:34:24;4.80;;;2.80;;
11247;SDS011;5681;53.316;13.950;2023-03-23T03:36:51;6.40;;;2.80;;
11247;SDS011;5681;53.316;13.950;2023-03-23T03:39:18;6.97;;;3.00;;
11247;SDS011;5681;53.316;13.950;2023-03-23T03:41:47;4.78;;;3.05;;
11247;SDS011;5681;53.316;13.950;2023-03-23T03:44:14;5.53;;;3.20;;
11247;SDS011;5681;53.316;13.950;2023-03-23T03:46:41;5.13;;;2.88;;
11247;SDS011;5681;53.316;13.950;2023-03-23T03:49:08;6.88;;;3.10;;
11247;SDS011;5681;53.316;13.950;2023-03-23T03:51:37;4.40;;;3.20;;
11247;SDS011;5681;53.316;13.950;2023-03-23T03:54:04;5.93;;;3.25;;
11247;SDS011;5681;53.316;13.950;2023-03-23T03:56:31;7.55;;;2.90;;
11247;SDS011;5681;53.316;13.950;2023-03-23T03:59:02;7.43;;;3.10;;
11247;SDS011;5681;53.316;13.950;2023-03-23T04:01:28;4.43;;;3.13;;
11247;SDS011;5681;53.316;13.950;2023-03-23T04:03:54;4.45;;;3.10;;
11247;SDS011;5681;53.316;13.950;2023-03-23T04:06:21;8.23;;;3.22;;
11247;SDS011;5681;53.316;13.950;2023-03-23T04:08:47;5.70;;;3.20;;
11247;SDS011;5681;53.316;13.950;2023-03-23T04:11:14;7.65;;;3.45;;
11247;SDS011;5681;53.316;13.950;2023-03-23T04:13:40;5.43;;;3.30;;
11247;SDS011;5681;53.316;13.950;2023-03-23T04:16:08;6.35;;;4.95;;
11247;SDS011;5681;53.316;13.950;2023-03-23T04:18:35;7.53;;;5.68;;
11247;SDS011;5681;53.316;13.950;2023-03-23T04:21:02;10.68;;;7.55;;
11247;SDS011;5681;53.316;13.950;2023-03-23T04:23:29;16.95;;;12.60;;
11247;SDS011;5681;53.316;13.950;2023-03-23T04:25:58;16.38;;;11.93;;
11247;SDS011;5681;53.316;13.950;2023-03-23T04:28:25;25.48;;;22.73;;
11247;SDS011;5681;53.316;13.950;2023-03-23T04:30:53;9.35;;;7.18;;
11247;SDS011;5681;53.316;13.950;2023-03-23T04:33:22;8.70;;;4.55;;
11247;SDS011;5681;53.316;13.950;2023-03-23T04:35:50;7.45;;;4.78;;
11247;SDS011;5681;53.316;13.950;2023-03-23T04:38:16;6.68;;;4.55;;
11247;SDS011;5681;53.316;13.950;2023-03-23T04:40:45;5.63;;;5.13;;
11247;SDS011;5681;53.316;13.950;2023-03-23T04:43:11;7.15;;;4.40;;
11247;SDS011;5681;53.316;13.950;2023-03-23T04:45:40;4.90;;;4.40;;
11247;SDS011;5681;53.316;13.950;2023-03-23T04:48:10;5.03;;;4.43;;
11247;SDS011;5681;53.316;13.950;2023-03-23T04:50:38;6.10;;;4.30;;
11247;SDS011;5681;53.316;13.950;2023-03-23T04:53:04;9.43;;;5.70;;
11247;SDS011;5681;53.316;13.950;2023-03-23T04:55:31;4.97;;;4.38;;
11247;SDS011;5681;53.316;13.950;2023-03-23T04:58:01;6.82;;;4.43;;
11247;SDS011;5681;53.316;13.950;2023-03-23T05:00:27;7.32;;;5.10;;
11247;SDS011;5681;53.316;13.950;2023-03-23T05:02:54;10.57;;;5.22;;
11247;SDS011;5681;53.316;13.950;2023-03-23T05:05:21;10.63;;;6.25;;
11247;SDS011;5681;53.316;13.950;2023-03-23T05:07:49;12.90;;;9.85;;
11247;SDS011;5681;53.316;13.950;2023-03-23T05:10:16;13.45;;;8.73;;
11247;SDS011;5681;53.316;13.950;2023-03-23T05:12:43;14.70;;;9.75;;
11247;SDS011;5681;53.316;13.950;2023-03-23T05:15:10;17.55;;;12.18;;
11247;SDS011;5681;53.316;13.950;2023-03-23T05:17:37;16.42;;;10.93;;
11247;SDS011;5681;53.316;13.950;2023-03-23T05:20:06;12.90;;;8.35;;
11247;SDS011;5681;53.316;13.950;2023-03-23T05:22:35;13.48;;;9.45;;
11247;SDS011;5681;53.316;13.950;2023-03-23T05:25:05;9.45;;;7.45;;
11247;SDS011;5681;53.316;13.950;2023-03-23T05:27:33;9.05;;;6.40;;
11247;SDS011;5681;53.316;13.950;2023-03-23T05:30:00;8.52;;;5.90;;
11247;SDS011;5681;53.316;13.950;2023-03-23T05:32:26;8.07;;;6.40;;
11247;SDS011;5681;53.316;13.950;2023-03-23T05:34:55;11.75;;;5.85;;
11247;SDS011;5681;53.316;13.950;2023-03-23T05:37:22;6.78;;;5.70;;
11247;SDS011;5681;53.316;13.950;2023-03-23T05:39:48;8.77;;;6.95;;
11247;SDS011;5681;53.316;13.950;2023-03-23T05:42:19;8.65;;;6.70;;
11247;SDS011;5681;53.316;13.950;2023-03-23T05:44:46;7.90;;;6.65;;
11247;SDS011;5681;53.316;13.950;2023-03-23T05:47:12;8.52;;;6.93;;
11247;SDS011;5681;53.316;13.950;2023-03-23T05:49:38;8.75;;;6.03;;
11247;SDS011;5681;53.316;13.950;2023-03-23T05:52:05;11.07;;;6.47;;
11247;SDS011;5681;53.316;13.950;2023-03-23T05:54:31;9.82;;;6.32;;
11247;SDS011;5681;53.316;13.950;2023-03-23T05:56:59;7.25;;;6.25;;
11247;SDS011;5681;53.316;13.950;2023-03-23T05:59:26;10.90;;;6.38;;
11247;SDS011;5681;53.316;13.950;2023-03-23T06:01:53;11.07;;;6.63;;
11247;SDS011;5681;53.316;13.950;2023-03-23T06:04:20;8.35;;;6.18;;
11247;SDS011;5681;53.316;13.950;2023-03-23T06:06:49;8.27;;;6.10;;
11247;SDS011;5681;53.316;13.950;2023-03-23T06:09:16;6.80;;;6.15;;
11247;SDS011;5681;53.316;13.950;2023-03-23T06:11:43;8.33;;;7.00;;
11247;SDS011;5681;53.316;13.950;2023-03-23T06:14:09;7.57;;;6.40;;
11247;SDS011;5681;53.316;13.950;2023-03-23T06:16:38;8.00;;;6.67;;
11247;SDS011;5681;53.316;13.950;2023-03-23T06:19:04;7.97;;;7.17;;
11247;SDS011;5681;53.316;13.950;2023-03-23T06:21:31;7.50;;;6.47;;
11247;SDS011;5681;53.316;13.950;2023-03-23T06:23:57;7.53;;;6.72;;
11247;SDS011;5681;53.316;13.950;2023-03-23T06:26:25;8.13;;;6.07;;
11247;SDS011;5681;53.316;13.950;2023-03-23T06:28:54;8.10;;;6.28;;
11247;SDS011;5681;53.316;13.950;2023-03-23T06:31:21;7.25;;;6.00;;
11247;SDS011;5681;53.316;13.950;2023-03-23T06:33:49;9.65;;;6.78;;
11247;SDS011;5681;53.316;13.950;2023-03-23T06:36:16;8.13;;;6.13;;
11247;SDS011;5681;53.316;13.950;2023-03-23T06:38:42;7.32;;;6.03;;
11247;SDS011;5681;53.316;13.950;2023-03-23T06:41:09;9.95;;;6.30;;
11247;SDS011;5681;53.316;13.950;2023-03-23T06:43:36;11.77;;;6.80;;
11247;SDS011;5681;53.316;13.950;2023-03-23T06:46:04;7.57;;;6.20;;
11247;SDS011;5681;53.316;13.950;2023-03-23T06:48:31;10.13;;;5.65;;
11247;SDS011;5681;53.316;13.950;2023-03-23T06:50:59;8.75;;;6.28;;
11247;SDS011;5681;53.316;13.950;2023-03-23T06:53:25;8.30;;;5.77;;
11247;SDS011;5681;53.316;13.950;2023-03-23T06:55:52;6.80;;;5.70;;
11247;SDS011;5681;53.316;13.950;2023-03-23T06:58:18;8.43;;;6.10;;
11247;SDS011;5681;53.316;13.950;2023-03-23T07:00:44;8.30;;;5.30;;
11247;SDS011;5681;53.316;13.950;2023-03-23T07:03:11;8.35;;;5.80;;
11247;SDS011;5681;53.316;13.950;2023-03-23T07:05:38;10.60;;;6.32;;
11247;SDS011;5681;53.316;13.950;2023-03-23T07:08:06;7.78;;;6.50;;
11247;SDS011;5681;53.316;13.950;2023-03-23T07:10:32;6.90;;;4.80;;
11247;SDS011;5681;53.316;13.950;2023-03-23T07:12:58;8.55;;;5.30;;
11247;SDS011;5681;53.316;13.950;2023-03-23T07:15:25;8.65;;;5.28;;
11247;SDS011;5681;53.316;13.950;2023-03-23T07:17:52;10.63;;;5.32;;
11247;SDS011;5681;53.316;13.950;2023-03-23T07:20:19;6.70;;;5.30;;
11247;SDS011;5681;53.316;13.950;2023-03-23T07:22:45;8.48;;;5.78;;
11247;SDS011;5681;53.316;13.950;2023-03-23T07:25:13;6.55;;;5.43;;
11247;SDS011;5681;53.316;13.950;2023-03-23T07:27:40;6.88;;;5.85;;
11247;SDS011;5681;53.316;13.950;2023-03-23T07:30:07;6.53;;;4.70;;
11247;SDS011;5681;53.316;13.950;2023-03-23T07:32:34;6.03;;;4.60;;
11247;SDS011;5681;53.316;13.950;2023-03-23T07:35:00;8.30;;;6.13;;
11247;SDS011;5681;53.316;13.950;2023-03-23T07:37:27;6.38;;;4.40;;
11247;SDS011;5681;53.316;13.950;2023-03-23T07:39:54;7.95;;;6.55;;
11247;SDS011;5681;53.316;13.950;2023-03-23T07:42:22;6.57;;;4.90;;
11247;SDS011;5681;53.316;13.950;2023-03-23T07:44:48;7.10;;;4.95;;
11247;SDS011;5681;53.316;13.950;2023-03-23T07:47:15;5.78;;;4.97;;
11247;SDS011;5681;53.316;13.950;2023-03-23T07:49:42;5.05;;;4.40;;
11247;SDS011;5681;53.316;13.950;2023-03-23T07:52:09;7.78;;;4.95;;
11247;SDS011;5681;53.316;13.950;2023-03-23T07:54:35;7.50;;;4.90;;
11247;SDS011;5681;53.316;13.950;2023-03-23T07:57:02;6.10;;;4.53;;
11247;SDS011;5681;53.316;13.950;2023-03-23T07:59:30;7.25;;;4.80;;
11247;SDS011;5681;53.316;13.950;2023-03-23T08:01:56;6.10;;;4.72;;
11247;SDS011;5681;53.316;13.950;2023-03-23T08:04:24;7.30;;;4.85;;
11247;SDS011;5681;53.316;13.950;2023-03-23T08:06:52;6.30;;;4.90;;
11247;SDS011;5681;53.316;13.950;2023-03-23T08:09:18;9.00;;;4.90;;
11247;SDS011;5681;53.316;13.950;2023-03-23T08:11:44;5.60;;;4.30;;
11247;SDS011;5681;53.316;13.950;2023-03-23T08:14:13;7.45;;;4.75;;
11247;SDS011;5681;53.316;13.950;2023-03-23T08:16:40;8.32;;;4.53;;
11247;SDS011;5681;53.316;13.950;2023-03-23T08:19:07;6.70;;;4.20;;
11247;SDS011;5681;53.316;13.950;2023-03-23T08:21:33;5.55;;;4.75;;
11247;SDS011;5681;53.316;13.950;2023-03-23T08:24:00;5.38;;;4.45;;
11247;SDS011;5681;53.316;13.950;2023-03-23T08:26:26;5.78;;;4.18;;
11247;SDS011;5681;53.316;13.950;2023-03-23T08:28:53;5.85;;;4.75;;
11247;SDS011;5681;53.316;13.950;2023-03-23T08:31:19;8.75;;;4.30;;
11247;SDS011;5681;53.316;13.950;2023-03-23T08:33:47;5.15;;;4.10;;
11247;SDS011;5681;53.316;13.950;2023-03-23T08:36:13;6.10;;;4.40;;
11247;SDS011;5681;53.316;13.950;2023-03-23T08:38:40;8.15;;;4.50;;
11247;SDS011;5681;53.316;13.950;2023-03-23T08:41:06;5.53;;;4.03;;
11247;SDS011;5681;53.316;13.950;2023-03-23T08:43:34;5.15;;;3.70;;
11247;SDS011;5681;53.316;13.950;2023-03-23T08:46:00;5.90;;;4.10;;
11247;SDS011;5681;53.316;13.950;2023-03-23T08:48:31;5.68;;;3.67;;
11247;SDS011;5681;53.316;13.950;2023-03-23T08:50:59;5.15;;;3.88;;
11247;SDS011;5681;53.316;13.950;2023-03-23T08:53:26;7.45;;;4.00;;
11247;SDS011;5681;53.316;13.950;2023-03-23T08:55:55;4.07;;;3.63;;
11247;SDS011;5681;53.316;13.950;2023-03-23T08:58:22;4.45;;;3.55;;
11247;SDS011;5681;53.316;13.950;2023-03-23T09:00:48;7.97;;;3.30;;
11247;SDS011;5681;53.316;13.950;2023-03-23T09:03:14;5.68;;;3.40;;
11247;SDS011;5681;53.316;13.950;2023-03-23T09:05:42;7.13;;;3.80;;
11247;SDS011;5681;53.316;13.950;2023-03-23T09:08:12;7.60;;;4.82;;
11247;SDS011;5681;53.316;13.950;2023-03-23T09:10:39;4.88;;;4.03;;
11247;SDS011;5681;53.316;13.950;2023-03-23T09:13:05;6.80;;;3.42;;
11247;SDS011;5681;53.316;13.950;2023-03-23T09:15:32;4.45;;;3.40;;
11247;SDS011;5681;53.316;13.950;2023-03-23T09:17:59;5.28;;;3.63;;
11247;SDS011;5681;53.316;13.950;2023-03-23T09:20:26;5.30;;;2.92;;
11247;SDS011;5681;53.316;13.950;2023-03-23T09:22:54;8.18;;;3.22;;
11247;SDS011;5681;53.316;13.950;2023-03-23T09:25:24;6.85;;;3.25;;
11247;SDS011;5681;53.316;13.950;2023-03-23T09:27:51;6.32;;;2.65;;
11247;SDS011;5681;53.316;13.950;2023-03-23T09:30:21;4.15;;;2.58;;
11247;SDS011;5681;53.316;13.950;2023-03-23T09:32:48;3.40;;;2.38;;
11247;SDS011;5681;53.316;13.950;2023-03-23T09:35:15;2.40;;;2.20;;
11247;SDS011;5681;53.316;13.950;2023-03-23T09:37:42;3.95;;;2.25;;
11247;SDS011;5681;53.316;13.950;2023-03-23T09:40:10;5.40;;;2.38;;
11247;SDS011;5681;53.316;13.950;2023-03-23T09:42:44;4.95;;;2.30;;
11247;SDS011;5681;53.316;13.950;2023-03-23T09:45:16;5.82;;;2.30;;
11247;SDS011;5681;53.316;13.950;2023-03-23T09:47:48;5.32;;;2.35;;
11247;SDS011;5681;53.316;13.950;2023-03-23T09:50:21;3.33;;;1.90;;
11247;SDS011;5681;53.316;13.950;2023-03-23T09:52:57;3.88;;;2.17;;
11247;SDS011;5681;53.316;13.950;2023-03-23T09:55:24;4.20;;;1.88;;
11247;SDS011;5681;53.316;13.950;2023-03-23T09:57:56;3.47;;;1.77;;
11247;SDS011;5681;53.316;13.950;2023-03-23T10:00:29;3.70;;;1.83;;
11247;SDS011;5681;53.316;13.950;2023-03-23T10:02:59;2.83;;;1.80;;
11247;SDS011;5681;53.316;13.950;2023-03-23T10:05:32;3.65;;;2.00;;
11247;SDS011;5681;53.316;13.950;2023-03-23T10:08:01;3.75;;;1.88;;
11247;SDS011;5681;53.316;13.950;2023-03-23T10:10:31;3.83;;;1.92;;
11247;SDS011;5681;53.316;13.950;2023-03-23T10:13:08;2.13;;;1.70;;
11247;SDS011;5681;53.316;13.950;2023-03-23T10:15:39;5.03;;;1.95;;
11247;SDS011;5681;53.316;13.950;2023-03-23T10:18:08;3.13;;;1.92;;
11247;SDS011;5681;53.316;13.950;2023-03-23T10:20:41;4.85;;;2.30;;
11247;SDS011;5681;53.316;13.950;2023-03-23T10:23:13;3.72;;;1.98;;
11247;SDS011;5681;53.316;13.950;2023-03-23T10:26:02;3.10;;;1.90;;
11247;SDS011;5681;53.316;13.950;2023-03-23T10:28:37;4.07;;;1.67;;
11247;SDS011;5681;53.316;13.950;2023-03-23T10:31:04;4.50;;;1.83;;
11247;SDS011;5681;53.316;13.950;2023-03-23T10:33:36;3.05;;;1.90;;
11247;SDS011;5681;53.316;13.950;2023-03-23T10:36:05;4.00;;;1.70;;
11247;SDS011;5681;53.316;13.950;2023-03-23T10:38:35;2.80;;;1.77;;
11247;SDS011;5681;53.316;13.950;2023-03-23T10:41:04;4.32;;;1.75;;
11247;SDS011;5681;53.316;13.950;2023-03-23T10:43:33;3.22;;;1.77;;
11247;SDS011;5681;53.316;13.950;2023-03-23T10:46:02;2.33;;;1.80;;
11247;SDS011;5681;53.316;13.950;2023-03-23T10:48:31;2.63;;;1.98;;
11247;SDS011;5681;53.316;13.950;2023-03-23T10:51:03;2.85;;;1.80;;
11247;SDS011;5681;53.316;13.950;2023-03-23T10:53:32;4.13;;;1.73;;
11247;SDS011;5681;53.316;13.950;2023-03-23T10:55:59;2.45;;;1.73;;
11247;SDS011;5681;53.316;13.950;2023-03-23T10:58:27;2.10;;;1.80;;
11247;SDS011;5681;53.316;13.950;2023-03-23T11:00:55;3.22;;;1.90;;
11247;SDS011;5681;53.316;13.950;2023-03-23T11:03:24;2.45;;;1.80;;
11247;SDS011;5681;53.316;13.950;2023-03-23T11:06:05;2.78;;;1.90;;
11247;SDS011;5681;53.316;13.950;2023-03-23T11:08:33;2.45;;;1.70;;
11247;SDS011;5681;53.316;13.950;2023-03-23T11:11:08;4.38;;;1.85;;
11247;SDS011;5681;53.316;13.950;2023-03-23T11:13:39;3.90;;;1.95;;
11247;SDS011;5681;53.316;13.950;2023-03-23T11:16:07;2.15;;;1.67;;
11247;SDS011;5681;53.316;13.950;2023-03-23T11:18:37;3.08;;;1.70;;
11247;SDS011;5681;53.316;13.950;2023-03-23T11:21:05;4.55;;;1.90;;
11247;SDS011;5681;53.316;13.950;2023-03-23T11:23:34;2.72;;;1.60;;
11247;SDS011;5681;53.316;13.950;2023-03-23T11:26:08;2.42;;;1.60;;
11247;SDS011;5681;53.316;13.950;2023-03-23T11:28:37;3.85;;;1.80;;
11247;SDS011;5681;53.316;13.950;2023-03-23T11:31:05;2.92;;;1.83;;
11247;SDS011;5681;53.316;13.950;2023-03-23T11:33:36;3.88;;;1.95;;
11247;SDS011;5681;53.316;13.950;2023-03-23T11:36:05;3.60;;;1.80;;
11247;SDS011;5681;53.316;13.950;2023-03-23T11:38:33;1.98;;;1.50;;
11247;SDS011;5681;53.316;13.950;2023-03-23T11:41:00;3.13;;;1.92;;
11247;SDS011;5681;53.316;13.950;2023-03-23T11:43:26;1.60;;;1.50;;
11247;SDS011;5681;53.316;13.950;2023-03-23T11:46:01;4.13;;;1.70;;
11247;SDS011;5681;53.316;13.950;2023-03-23T11:48:33;3.53;;;1.58;;
11247;SDS011;5681;53.316;13.950;2023-03-23T11:51:04;4.03;;;1.92;;
11247;SDS011;5681;53.316;13.950;2023-03-23T11:53:37;3.90;;;1.75;;
11247;SDS011;5681;53.316;13.950;2023-03-23T11:56:11;4.13;;;1.65;;
11247;SDS011;5681;53.316;13.950;2023-03-23T11:58:42;4.13;;;1.95;;
11247;SDS011;5681;53.316;13.950;2023-03-23T12:01:11;9.15;;;1.60;;
11247;SDS011;5681;53.316;13.950;2023-03-23T12:03:53;4.57;;;2.10;;
11247;SDS011;5681;53.316;13.950;2023-03-23T12:06:48;3.25;;;1.92;;
11247;SDS011;5681;53.316;13.950;2023-03-23T12:09:26;3.00;;;1.88;;
11247;SDS011;5681;53.316;13.950;2023-03-23T12:12:02;2.60;;;1.70;;
11247;SDS011;5681;53.316;13.950;2023-03-23T12:14:35;3.38;;;1.90;;
11247;SDS011;5681;53.316;13.950;2023-03-23T12:17:09;4.72;;;1.85;;
11247;SDS011;5681;53.316;13.950;2023-03-23T12:19:44;6.35;;;1.75;;
11247;SDS011;5681;53.316;13.950;2023-03-23T12:22:19;3.03;;;1.60;;
11247;SDS011;5681;53.316;13.950;2023-03-23T12:24:57;2.67;;;1.63;;
11247;SDS011;5681;53.316;13.950;2023-03-23T12:27:33;6.75;;;1.70;;
11247;SDS011;5681;53.316;13.950;2023-03-23T12:30:08;4.95;;;1.60;;
11247;SDS011;5681;53.316;13.950;2023-03-23T12:32:42;13.27;;;2.45;;
11247;SDS011;5681;53.316;13.950;2023-03-23T12:35:17;3.28;;;1.80;;
11247;SDS011;5681;53.316;13.950;2023-03-23T12:37:58;3.70;;;2.58;;
11247;SDS011;5681;53.316;13.950;2023-03-23T12:40:38;3.92;;;2.15;;
11247;SDS011;5681;53.316;13.950;2023-03-23T12:43:19;3.97;;;2.03;;
11247;SDS011;5681;53.316;13.950;2023-03-23T12:45:55;3.08;;;1.90;;
11247;SDS011;5681;53.316;13.950;2023-03-23T12:48:29;6.05;;;2.40;;
11247;SDS011;5681;53.316;13.950;2023-03-23T12:51:08;5.00;;;2.00;;
11247;SDS011;5681;53.316;13.950;2023-03-23T12:53:42;5.40;;;2.08;;
11247;SDS011;5681;53.316;13.950;2023-03-23T12:56:14;3.13;;;1.90;;
11247;SDS011;5681;53.316;13.950;2023-03-23T12:58:44;3.58;;;2.00;;
11247;SDS011;5681;53.316;13.950;2023-03-23T13:01:11;3.67;;;1.90;;
11247;SDS011;5681;53.316;13.950;2023-03-23T13:03:41;2.67;;;1.75;;
11247;SDS011;5681;53.316;13.950;2023-03-23T13:06:12;3.20;;;1.90;;
11247;SDS011;5681;53.316;13.950;2023-03-23T13:08:44;4.80;;;1.75;;
11247;SDS011;5681;53.316;13.950;2023-03-23T13:11:15;3.13;;;1.70;;
11247;SDS011;5681;53.316;13.950;2023-03-23T13:13:46;3.35;;;1.60;;
11247;SDS011;5681;53.316;13.950;2023-03-23T13:16:17;2.72;;;1.85;;
11247;SDS011;5681;53.316;13.950;2023-03-23T13:18:49;3.88;;;2.08;;
11247;SDS011;5681;53.316;13.950;2023-03-23T13:21:24;10.30;;;2.33;;
11247;SDS011;5681;53.316;13.950;2023-03-23T13:23:54;3.17;;;1.90;;
11247;SDS011;5681;53.316;13.950;2023-03-23T13:26:22;4.18;;;1.65;;
11247;SDS011;5681;53.316;13.950;2023-03-23T13:28:57;4.18;;;1.80;;
11247;SDS011;5681;53.316;13.950;2023-03-23T13:31:27;4.05;;;1.75;;
11247;SDS011;5681;53.316;13.950;2023-03-23T13:33:59;4.05;;;2.55;;
11247;SDS011;5681;53.316;13.950;2023-03-23T13:36:29;4.50;;;1.92;;
11247;SDS011;5681;53.316;13.950;2023-03-23T13:38:59;2.85;;;1.50;;
11247;SDS011;5681;53.316;13.950;2023-03-23T13:41:27;4.10;;;1.70;;
11247;SDS011;5681;53.316;13.950;2023-03-23T13:44:04;3.03;;;1.70;;
11247;SDS011;5681;53.316;13.950;2023-03-23T13:46:32;3.45;;;1.90;;
11247;SDS011;5681;53.316;13.950;2023-03-23T13:49:16;3.30;;;1.80;;
11247;SDS011;5681;53.316;13.950;2023-03-23T13:51:51;3.65;;;1.80;;
11247;SDS011;5681;53.316;13.950;2023-03-23T13:54:30;4.13;;;1.75;;
11247;SDS011;5681;53.316;13.950;2023-03-23T13:56:58;2.80;;;1.70;;
11247;SDS011;5681;53.316;13.950;2023-03-23T13:59:31;3.42;;;1.83;;
11247;SDS011;5681;53.316;13.950;2023-03-23T14:04:55;4.68;;;2.00;;
11247;SDS011;5681;53.316;13.950;2023-03-23T14:07:22;4.97;;;1.67;;
11247;SDS011;5681;53.316;13.950;2023-03-23T14:09:50;9.48;;;2.00;;
11247;SDS011;5681;53.316;13.950;2023-03-23T14:12:18;3.45;;;1.27;;
11247;SDS011;5681;53.316;13.950;2023-03-23T14:14:46;4.22;;;1.15;;
11247;SDS011;5681;53.316;13.950;2023-03-23T14:17:15;3.70;;;1.30;;
11247;SDS011;5681;53.316;13.950;2023-03-23T14:19:44;3.83;;;1.08;;
11247;SDS011;5681;53.316;13.950;2023-03-23T14:22:17;2.38;;;1.20;;
11247;SDS011;5681;53.316;13.950;2023-03-23T14:24:45;3.72;;;1.30;;
11247;SDS011;5681;53.316;13.950;2023-03-23T14:27:14;2.13;;;1.23;;
11247;SDS011;5681;53.316;13.950;2023-03-23T14:29:41;2.53;;;1.10;;
11247;SDS011;5681;53.316;13.950;2023-03-23T14:32:12;2.17;;;1.20;;
11247;SDS011;5681;53.316;13.950;2023-03-23T14:34:40;2.90;;;1.40;;
11247;SDS011;5681;53.316;13.950;2023-03-23T14:37:08;2.95;;;1.42;;
11247;SDS011;5681;53.316;13.950;2023-03-23T14:39:37;3.17;;;1.40;;
11247;SDS011;5681;53.316;13.950;2023-03-23T14:42:03;3.60;;;1.15;;
11247;SDS011;5681;53.316;13.950;2023-03-23T14:44:33;1.00;;;0.85;;
11247;SDS011;5681;53.316;13.950;2023-03-23T14:47:01;2.83;;;1.00;;
11247;SDS011;5681;53.316;13.950;2023-03-23T14:49:31;3.55;;;1.08;;
11247;SDS011;5681;53.316;13.950;2023-03-23T14:52:02;2.80;;;1.00;;
11247;SDS011;5681;53.316;13.950;2023-03-23T14:54:31;2.33;;;1.13;;
11247;SDS011;5681;53.316;13.950;2023-03-23T14:57:02;4.10;;;1.20;;
11247;SDS011;5681;53.316;13.950;2023-03-23T14:59:30;2.13;;;1.00;;